createdAt,value
2018-06-05T00:02:23.315Z,63.10
2018-06-05T00:04:54.975Z,63.00
2018-06-05T00:07:26.483Z,63.60
2018-06-05T00:09:59.401Z,63.90
2018-06-05T00:12:30.982Z,64.30
2018-06-05T00:15:02.622Z,64.50
2018-06-05T00:17:34.173Z,64.90
2018-06-05T00:20:05.866Z,64.90
2018-06-05T00:22:37.748Z,64.80
2018-06-05T00:25:09.354Z,64.70
2018-06-05T00:27:41.004Z,64.60
2018-06-05T00:30:12.756Z,64.70
2018-06-05T00:32:44.554Z,64.50
2018-06-05T00:35:16.335Z,64.40
2018-06-05T00:37:47.965Z,65.00
2018-06-05T00:40:19.596Z,65.30
2018-06-05T00:42:51.269Z,65.30
2018-06-05T00:45:22.822Z,65.50
2018-06-05T00:47:54.594Z,65.90
2018-06-05T00:50:26.376Z,66.30
2018-06-05T00:52:57.978Z,66.40
2018-06-05T00:55:29.637Z,66.40
2018-06-05T00:58:01.189Z,67.00
2018-06-05T01:00:32.850Z,66.60
2018-06-05T01:03:05.449Z,66.70
2018-06-05T01:05:37.240Z,66.90
2018-06-05T01:08:08.873Z,66.70
2018-06-05T01:10:40.600Z,67.30
2018-06-05T01:13:12.194Z,67.20
2018-06-05T01:15:43.969Z,67.40
2018-06-05T01:18:15.609Z,67.60
2018-06-05T01:20:47.328Z,67.80
2018-06-05T01:25:50.756Z,68.10
2018-06-05T01:28:22.454Z,68.40
2018-06-05T01:30:54.081Z,68.80
2018-06-05T01:33:25.772Z,68.80
2018-06-05T01:35:57.401Z,68.80
2018-06-05T01:38:28.981Z,68.80
2018-06-05T01:41:00.612Z,68.90
2018-06-05T01:43:32.353Z,68.80
2018-06-05T01:46:03.921Z,68.80
2018-06-05T01:48:35.642Z,68.80
2018-06-05T01:51:07.214Z,68.80
2018-06-05T01:53:38.833Z,68.80
2018-06-05T01:56:10.344Z,69.00
2018-06-05T01:58:42.088Z,69.00
2018-06-05T02:01:13.670Z,69.10
2018-06-05T02:03:45.375Z,69.00
2018-06-05T02:06:16.957Z,68.90
2018-06-05T02:08:48.653Z,68.90
2018-06-05T02:11:20.352Z,69.00
2018-06-05T02:13:51.965Z,69.10
2018-06-05T02:16:23.569Z,69.10
2018-06-05T02:18:55.322Z,69.20
2018-06-05T02:21:26.889Z,69.30
2018-06-05T02:23:58.507Z,69.30
2018-06-05T02:26:30.085Z,69.40
2018-06-05T02:29:01.607Z,69.70
2018-06-05T02:31:33.213Z,70.00
2018-06-05T02:34:05.054Z,70.50
2018-06-05T02:36:37.034Z,70.60
2018-06-05T02:39:09.365Z,71.50
2018-06-05T02:41:40.941Z,70.90
2018-06-05T02:44:12.574Z,70.70
2018-06-05T02:46:44.320Z,70.90
2018-06-05T02:49:15.981Z,70.30
2018-06-05T02:51:47.685Z,70.50
2018-06-05T02:54:19.346Z,70.50
2018-06-05T02:56:51.099Z,70.50
2018-06-05T02:59:22.842Z,70.50
2018-06-05T03:01:54.554Z,70.30
2018-06-05T03:04:26.149Z,70.40
2018-06-05T03:06:57.825Z,70.80
2018-06-05T03:09:29.416Z,71.30
2018-06-05T03:12:01.136Z,71.70
2018-06-05T03:14:32.828Z,71.90
2018-06-05T03:17:04.554Z,72.10
2018-06-05T03:19:36.258Z,72.20
2018-06-05T03:22:07.963Z,72.40
2018-06-05T03:24:39.579Z,72.20
2018-06-05T03:27:11.181Z,72.10
2018-06-05T03:29:42.792Z,72.10
2018-06-05T03:32:14.583Z,72.40
2018-06-05T03:34:46.136Z,72.50
2018-06-05T03:37:17.997Z,73.20
2018-06-05T03:39:49.857Z,73.10
2018-06-05T03:42:21.448Z,72.70
2018-06-05T03:44:53.130Z,72.70
2018-06-05T03:47:24.752Z,72.70
2018-06-05T03:49:56.497Z,72.70
2018-06-05T03:52:28.077Z,72.80
2018-06-05T03:54:59.766Z,72.60
2018-06-05T03:57:31.354Z,72.70
2018-06-05T04:00:03.136Z,72.60
2018-06-05T04:02:34.974Z,72.50
2018-06-05T04:05:06.745Z,72.30
2018-06-05T04:07:38.290Z,72.20
2018-06-05T04:10:09.943Z,72.30
2018-06-05T04:12:41.610Z,72.30
2018-06-05T04:15:13.184Z,72.40
2018-06-05T04:17:44.923Z,72.70
2018-06-05T04:20:16.500Z,72.70
2018-06-05T04:22:48.232Z,72.80
2018-06-05T04:25:19.820Z,72.90
2018-06-05T04:27:51.601Z,72.90
2018-06-05T04:30:23.396Z,73.20
2018-06-05T04:32:55.061Z,73.30
2018-06-05T04:35:26.773Z,73.50
2018-06-05T04:37:58.410Z,73.60
2018-06-05T04:40:30.227Z,73.80
2018-06-05T04:43:01.788Z,73.80
2018-06-05T04:45:33.445Z,73.60
2018-06-05T04:48:05.157Z,73.30
2018-06-05T04:50:36.839Z,73.20
2018-06-05T04:53:08.659Z,72.90
2018-06-05T04:55:40.286Z,73.00
2018-06-05T04:58:11.938Z,72.40
2018-06-05T05:00:43.593Z,72.20
2018-06-05T05:03:15.254Z,72.40
2018-06-05T05:08:17.949Z,71.50
2018-06-05T05:10:49.497Z,71.40
2018-06-05T05:13:21.160Z,71.20
2018-06-05T05:15:52.708Z,71.20
2018-06-05T05:18:24.357Z,71.00
2018-06-05T05:20:55.973Z,71.00
2018-06-05T05:23:27.679Z,71.20
2018-06-05T05:25:59.140Z,71.40
2018-06-05T05:28:30.841Z,71.30
2018-06-05T05:31:02.476Z,70.50
2018-06-05T05:33:34.224Z,70.50
2018-06-05T05:36:06.155Z,70.30
2018-06-05T05:38:37.749Z,70.20
2018-06-05T05:41:09.352Z,70.40
2018-06-05T05:43:41.040Z,70.20
2018-06-05T05:46:12.630Z,70.20
2018-06-05T05:48:44.340Z,69.70
2018-06-05T05:51:15.892Z,69.40
2018-06-05T05:53:47.479Z,69.60
2018-06-05T05:56:19.315Z,69.50
2018-06-05T05:58:51.027Z,69.30
2018-06-05T06:01:22.651Z,69.20
2018-06-05T06:03:54.289Z,68.60
2018-06-05T06:06:25.838Z,68.40
2018-06-05T06:08:57.550Z,68.20
2018-06-05T06:11:29.185Z,68.00
2018-06-05T06:14:00.928Z,68.10
2018-06-05T06:16:32.569Z,68.00
2018-06-05T06:19:04.240Z,68.00
2018-06-05T06:21:35.880Z,67.50
2018-06-05T06:24:07.536Z,66.90
2018-06-05T06:26:39.083Z,66.50
2018-06-05T06:29:10.760Z,66.40
2018-06-05T06:31:42.455Z,65.80
2018-06-05T06:34:14.091Z,65.90
2018-06-05T06:36:45.729Z,65.10
2018-06-05T06:39:17.485Z,64.50
2018-06-05T06:41:49.022Z,64.20
2018-06-05T06:44:20.601Z,64.80
2018-06-05T06:46:52.246Z,64.70
2018-06-05T06:49:23.941Z,64.30
2018-06-05T06:51:55.513Z,64.10
2018-06-05T06:54:27.269Z,63.60
2018-06-05T06:56:58.822Z,63.60
2018-06-05T06:59:30.426Z,62.40
2018-06-05T07:02:02.070Z,62.80
2018-06-05T07:04:33.750Z,62.10
2018-06-05T07:07:05.495Z,61.60
2018-06-05T07:09:37.239Z,62.00
2018-06-05T07:12:08.836Z,62.10
2018-06-05T07:14:40.457Z,59.30
2018-06-05T07:17:12.123Z,58.30
2018-06-05T07:19:43.670Z,58.40
2018-06-05T07:22:15.249Z,59.40
2018-06-05T07:24:47.023Z,58.70
2018-06-05T07:27:18.664Z,58.30
2018-06-05T07:29:50.494Z,57.50
2018-06-05T07:32:22.084Z,57.10
2018-06-05T07:34:53.820Z,57.60
2018-06-05T07:37:25.502Z,57.60
2018-06-05T07:39:57.123Z,56.60
2018-06-05T07:42:28.827Z,55.30
2018-06-05T07:45:00.551Z,56.30
2018-06-05T07:50:03.380Z,55.60
2018-06-05T07:52:35.001Z,55.40
2018-06-05T07:55:06.659Z,54.80
2018-06-05T07:57:38.366Z,54.80
2018-06-05T08:00:10.081Z,54.70
2018-06-05T08:02:41.725Z,53.80
2018-06-05T08:07:44.433Z,54.30
2018-06-05T08:10:16.120Z,54.10
2018-06-05T08:12:47.845Z,53.40
2018-06-05T08:15:19.417Z,53.30
2018-06-05T08:17:51.056Z,51.90
2018-06-05T08:20:22.709Z,50.40
2018-06-05T08:22:56.656Z,50.50
2018-06-05T08:25:28.385Z,51.40
2018-06-05T08:28:00.029Z,51.40
2018-06-05T08:30:31.782Z,50.60
2018-06-05T08:33:03.456Z,50.60
2018-06-05T08:35:35.113Z,49.60
2018-06-05T08:38:06.768Z,49.80
2018-06-05T08:40:38.593Z,49.70
2018-06-05T08:43:10.484Z,49.30
2018-06-05T08:45:42.129Z,49.30
2018-06-05T08:48:13.713Z,50.00
2018-06-05T08:50:45.449Z,51.00
2018-06-05T08:53:17.042Z,51.20
2018-06-05T08:55:48.746Z,49.50
2018-06-05T08:58:20.429Z,49.40
2018-06-05T09:00:51.975Z,48.50
2018-06-05T09:03:23.549Z,48.30
2018-06-05T09:05:55.185Z,47.00
2018-06-05T09:08:26.846Z,47.40
2018-06-05T09:10:58.480Z,46.80
2018-06-05T09:13:30.248Z,47.20
2018-06-05T09:16:02.109Z,47.00
2018-06-05T09:18:33.658Z,46.20
2018-06-05T09:21:05.389Z,46.70
2018-06-05T09:23:37.017Z,46.50
2018-06-05T09:26:08.677Z,46.40
2018-06-05T09:28:40.299Z,45.50
2018-06-05T09:31:11.990Z,45.40
2018-06-05T09:33:43.645Z,45.10
2018-06-05T09:36:15.277Z,45.70
2018-06-05T09:38:46.933Z,46.30
2018-06-05T09:41:18.790Z,45.00
2018-06-05T09:43:50.508Z,43.20
2018-06-05T09:46:22.309Z,43.20
2018-06-05T09:48:53.950Z,43.80
2018-06-05T09:51:25.669Z,45.40
2018-06-05T09:53:57.299Z,46.70
2018-06-05T09:56:28.956Z,46.50
2018-06-05T09:59:00.611Z,46.80
2018-06-05T10:01:32.286Z,47.80
2018-06-05T10:04:03.897Z,48.40
2018-06-05T10:06:35.609Z,48.10
2018-06-05T10:09:08.921Z,47.30
2018-06-05T10:11:40.627Z,45.50
2018-06-05T10:14:12.267Z,45.70
2018-06-05T10:16:44.147Z,45.10
2018-06-05T10:19:15.788Z,45.00
2018-06-05T10:21:47.445Z,45.70
2018-06-05T10:24:19.021Z,44.60
2018-06-05T10:26:50.853Z,44.20
2018-06-05T10:29:22.509Z,44.00
2018-06-05T10:31:54.219Z,41.90
2018-06-05T10:34:25.778Z,41.60
2018-06-05T10:36:57.576Z,40.90
2018-06-05T10:39:29.137Z,40.20
2018-06-05T10:42:00.857Z,40.10
2018-06-05T10:44:32.481Z,39.40
2018-06-05T10:47:04.258Z,39.40
2018-06-05T10:49:35.892Z,40.00
2018-06-05T10:52:07.828Z,38.50
2018-06-05T10:54:39.488Z,37.50
2018-06-05T10:57:11.298Z,37.70
2018-06-05T10:59:43.006Z,38.10
2018-06-05T11:02:14.548Z,36.30
2018-06-05T11:04:46.373Z,36.80
2018-06-05T11:07:17.969Z,37.70
2018-06-05T11:09:49.630Z,37.80
2018-06-05T11:12:21.280Z,38.00
2018-06-05T11:14:52.875Z,37.90
2018-06-05T11:17:24.597Z,38.20
2018-06-05T11:19:56.181Z,37.60
2018-06-05T11:22:27.912Z,37.20
2018-06-05T11:24:59.505Z,38.20
2018-06-05T11:27:31.281Z,38.10
2018-06-05T11:30:02.983Z,36.80
2018-06-05T11:32:34.732Z,37.30
2018-06-05T11:35:06.502Z,37.50
2018-06-05T11:37:38.170Z,36.50
2018-06-05T11:40:09.805Z,35.70
2018-06-05T11:45:12.543Z,37.80
2018-06-05T11:47:44.324Z,36.90
2018-06-05T11:50:15.972Z,36.80
2018-06-05T11:52:47.779Z,35.90
2018-06-05T11:55:19.372Z,36.00
2018-06-05T11:57:51.019Z,37.10
2018-06-05T12:00:22.984Z,37.10
2018-06-05T12:02:54.783Z,35.40
2018-06-05T12:05:26.408Z,35.10
2018-06-05T12:07:58.144Z,36.60
2018-06-05T12:10:29.816Z,36.60
2018-06-05T12:13:01.451Z,36.70
2018-06-05T12:15:33.114Z,36.30
2018-06-05T12:18:04.752Z,36.80
2018-06-05T12:20:36.344Z,36.60
2018-06-05T12:23:08.082Z,35.90
2018-06-05T12:25:39.697Z,33.90
2018-06-05T12:28:11.461Z,33.90
2018-06-05T12:30:43.190Z,34.80
2018-06-05T12:33:15.023Z,34.50
2018-06-05T12:35:46.589Z,36.80
2018-06-05T12:38:18.338Z,35.90
2018-06-05T12:40:49.986Z,36.00
2018-06-05T12:43:22.471Z,35.10
2018-06-05T12:45:54.220Z,35.20
2018-06-05T12:48:25.964Z,33.80
2018-06-05T12:50:57.533Z,34.40
2018-06-05T12:53:29.193Z,34.70
2018-06-05T12:56:00.769Z,35.00
2018-06-05T12:58:32.320Z,35.30
2018-06-05T13:01:04.050Z,35.50
2018-06-05T13:03:35.644Z,34.90
2018-06-05T13:06:07.464Z,33.70
2018-06-05T13:11:10.170Z,34.20
2018-06-05T13:13:41.824Z,34.10
2018-06-05T13:16:13.483Z,35.00
2018-06-05T13:18:45.039Z,35.50
2018-06-05T13:21:16.795Z,35.60
2018-06-05T13:23:48.366Z,34.80
2018-06-05T13:26:20.175Z,34.20
2018-06-05T13:28:51.808Z,33.50
2018-06-05T13:31:23.479Z,34.10
2018-06-05T13:33:55.106Z,34.30
2018-06-05T13:36:26.725Z,34.10
2018-06-05T13:38:58.553Z,33.60
2018-06-05T13:41:30.132Z,33.40
2018-06-05T13:44:01.765Z,32.40
2018-06-05T13:46:33.468Z,32.90
2018-06-05T13:49:05.205Z,32.60
2018-06-05T13:51:36.763Z,33.30
2018-06-05T13:54:08.426Z,33.20
2018-06-05T13:56:40.174Z,34.60
2018-06-05T13:59:11.843Z,34.60
2018-06-05T14:01:43.393Z,33.60
2018-06-05T14:06:46.086Z,33.40
2018-06-05T14:09:18.213Z,34.10
2018-06-05T14:11:49.844Z,33.70
2018-06-05T14:14:21.598Z,34.20
2018-06-05T14:16:53.341Z,34.40
2018-06-05T14:19:25.026Z,33.70
2018-06-05T14:21:56.703Z,34.00
2018-06-05T14:24:28.337Z,34.10
2018-06-05T14:26:59.921Z,34.10
2018-06-05T14:29:31.620Z,32.00
2018-06-05T14:32:03.125Z,32.20
2018-06-05T14:34:34.757Z,32.60
2018-06-05T14:37:06.489Z,33.00
2018-06-05T14:42:09.229Z,34.20
2018-06-05T14:44:40.994Z,34.10
2018-06-05T14:47:12.654Z,33.70
2018-06-05T14:49:44.345Z,33.30
2018-06-05T14:52:15.964Z,32.10
2018-06-05T14:54:47.761Z,33.40
2018-06-05T14:57:19.389Z,32.50
2018-06-05T14:59:50.977Z,32.30
2018-06-05T15:02:22.527Z,34.40
2018-06-05T15:04:54.085Z,34.40
2018-06-05T15:07:25.598Z,35.10
2018-06-05T15:09:57.222Z,34.80
2018-06-05T15:12:28.944Z,35.60
2018-06-05T15:15:00.533Z,36.00
2018-06-05T15:17:32.229Z,36.50
2018-06-05T15:20:03.833Z,36.90
2018-06-05T15:22:35.491Z,36.80
2018-06-05T15:25:07.071Z,37.40
2018-06-05T15:27:38.782Z,36.90
2018-06-05T15:32:41.380Z,37.40
2018-06-05T15:37:44.149Z,38.10
2018-06-05T15:40:15.765Z,38.30
2018-06-05T15:42:47.489Z,37.20
2018-06-05T15:45:19.193Z,37.90
2018-06-05T15:47:50.771Z,39.00
2018-06-05T15:50:22.509Z,37.70
2018-06-05T15:52:54.233Z,39.20
2018-06-05T15:55:25.813Z,38.00
2018-06-05T15:57:57.491Z,38.00
2018-06-05T16:00:29.129Z,38.50
2018-06-05T16:03:00.879Z,39.00
2018-06-05T16:05:32.478Z,39.40
2018-06-05T16:08:04.125Z,40.30
2018-06-05T16:10:35.748Z,41.20
2018-06-05T16:13:07.443Z,41.50
2018-06-05T16:15:39.230Z,41.70
2018-06-05T16:20:41.833Z,42.80
2018-06-05T16:23:13.346Z,43.10
2018-06-05T16:25:44.949Z,43.30
2018-06-05T16:28:16.458Z,43.60
2018-06-05T16:30:48.165Z,43.70
2018-06-05T16:33:19.718Z,43.70
2018-06-05T16:35:51.367Z,44.50
2018-06-05T16:38:22.905Z,44.40
2018-06-05T16:40:54.478Z,44.80
2018-06-05T16:43:25.894Z,44.50
2018-06-05T16:45:57.481Z,44.40
2018-06-05T16:48:29.101Z,44.80
2018-06-05T16:51:00.707Z,44.50
2018-06-05T16:53:32.412Z,44.60
2018-06-05T16:56:04.196Z,43.90
2018-06-05T16:58:35.858Z,44.30
2018-06-05T17:01:07.445Z,44.80
2018-06-05T17:03:39.033Z,45.40
2018-06-05T17:06:10.745Z,44.50
2018-06-05T17:08:42.401Z,44.30
2018-06-05T17:11:14.153Z,44.70
2018-06-05T17:13:45.789Z,44.00
2018-06-05T17:16:17.529Z,43.90
2018-06-05T17:18:49.099Z,43.70
2018-06-05T17:21:20.673Z,44.20
2018-06-05T17:23:52.281Z,44.10
2018-06-05T17:26:24.074Z,44.40
2018-06-05T17:28:55.812Z,44.40
2018-06-05T17:31:27.400Z,44.50
2018-06-05T17:36:29.824Z,44.60
2018-06-05T17:39:01.615Z,44.90
2018-06-05T17:41:33.228Z,45.20
2018-06-05T17:44:05.333Z,44.80
2018-06-05T17:46:37.181Z,44.80
2018-06-05T17:49:08.858Z,45.20
2018-06-05T17:51:40.594Z,45.80
2018-06-05T17:54:12.268Z,46.30
2018-06-05T17:56:43.869Z,46.70
2018-06-05T17:59:15.402Z,47.30
2018-06-05T18:01:47.185Z,47.70
2018-06-05T18:04:18.692Z,48.10
2018-06-05T18:06:50.493Z,48.40
2018-06-05T18:09:21.997Z,48.50
2018-06-05T18:11:53.726Z,48.90
2018-06-05T18:14:25.433Z,49.20
2018-06-05T18:16:57.105Z,49.20
2018-06-05T18:19:28.651Z,49.40
2018-06-05T18:22:00.243Z,49.50
2018-06-05T18:24:31.857Z,49.70
2018-06-05T18:27:03.533Z,49.70
2018-06-05T18:32:06.337Z,49.90
2018-06-05T18:34:37.865Z,49.90
2018-06-05T18:37:09.532Z,49.60
2018-06-05T18:39:41.292Z,49.60
2018-06-05T18:42:12.902Z,48.90
2018-06-05T18:44:44.604Z,50.00
2018-06-05T18:47:16.274Z,49.30
2018-06-05T18:49:47.776Z,49.20
2018-06-05T18:52:19.539Z,49.20
2018-06-05T18:54:51.127Z,49.30
2018-06-05T18:57:23.009Z,49.50
2018-06-05T18:59:54.627Z,50.10
2018-06-05T19:02:26.377Z,49.60
2018-06-05T19:04:58.029Z,49.80
2018-06-05T19:07:29.629Z,49.70
2018-06-05T19:10:01.272Z,49.80
2018-06-05T19:12:32.868Z,49.90
2018-06-05T19:15:04.357Z,50.00
2018-06-05T19:17:35.979Z,50.30
2018-06-05T19:20:07.666Z,50.50
2018-06-05T19:22:39.304Z,50.80
2018-06-05T19:25:11.005Z,51.00
2018-06-05T19:27:42.599Z,51.40
2018-06-05T19:30:14.391Z,51.70
2018-06-05T19:32:45.984Z,51.90
2018-06-05T19:35:17.600Z,52.10
2018-06-05T19:37:49.285Z,52.40
2018-06-05T19:40:21.014Z,52.80
2018-06-05T19:42:52.705Z,53.30
2018-06-05T19:45:24.429Z,53.70
2018-06-05T19:47:56.137Z,54.10
2018-06-05T19:50:27.669Z,54.60
2018-06-05T19:52:59.446Z,55.20
2018-06-05T19:55:30.978Z,56.10
2018-06-05T19:58:02.452Z,55.70
2018-06-05T20:00:34.061Z,55.90
2018-06-05T20:03:05.915Z,56.30
2018-06-05T20:05:37.670Z,56.40
2018-06-05T20:08:09.184Z,56.70
2018-06-05T20:10:40.927Z,57.00
2018-06-05T20:13:12.520Z,57.20
2018-06-05T20:15:44.317Z,57.30
2018-06-05T20:18:15.820Z,57.40
2018-06-05T20:20:47.533Z,57.50
2018-06-05T20:23:19.145Z,57.90
2018-06-05T20:25:50.830Z,58.20
2018-06-05T20:28:22.417Z,58.30
2018-06-05T20:30:54.040Z,58.40
2018-06-05T20:33:25.664Z,58.40
2018-06-05T20:35:57.404Z,58.50
2018-06-05T20:38:28.969Z,58.60
2018-06-05T20:41:00.573Z,58.70
2018-06-05T20:43:32.355Z,58.80
2018-06-05T20:46:04.322Z,59.10
2018-06-05T20:48:36.020Z,59.60
2018-06-05T20:51:07.704Z,59.40
2018-06-05T20:53:39.334Z,59.70
2018-06-05T20:56:11.046Z,60.00
2018-06-05T20:58:42.650Z,60.00
2018-06-05T21:01:14.224Z,60.30
2018-06-05T21:03:45.932Z,60.50
2018-06-05T21:06:17.626Z,60.70
2018-06-05T21:08:49.345Z,61.00
2018-06-05T21:11:20.987Z,61.40
2018-06-05T21:16:23.653Z,61.40
2018-06-05T21:18:55.273Z,62.10
2018-06-05T21:21:27.018Z,62.30
2018-06-05T21:23:58.594Z,62.50
2018-06-05T21:26:30.168Z,62.70
2018-06-05T21:29:01.832Z,62.40
2018-06-05T21:31:33.495Z,62.50
2018-06-05T21:34:05.279Z,62.70
2018-06-05T21:36:36.904Z,62.80
2018-06-05T21:39:10.588Z,63.00
2018-06-05T21:41:42.189Z,63.30
2018-06-05T21:44:13.905Z,63.60
2018-06-05T21:46:45.657Z,63.90
2018-06-05T21:49:17.316Z,64.00
2018-06-05T21:51:48.925Z,64.20
2018-06-05T21:54:20.653Z,64.30
2018-06-05T21:56:52.237Z,65.00
2018-06-05T21:59:23.891Z,64.80
2018-06-05T22:01:55.529Z,65.20
2018-06-05T22:04:27.105Z,65.20
2018-06-05T22:06:58.737Z,65.40
2018-06-05T22:09:30.358Z,65.60
2018-06-05T22:12:01.942Z,65.90
2018-06-05T22:14:33.565Z,66.00
2018-06-05T22:17:05.153Z,66.10
2018-06-05T22:19:36.855Z,66.20
2018-06-05T22:22:08.564Z,66.20
2018-06-05T22:24:40.189Z,66.30
2018-06-05T22:27:12.011Z,66.50
2018-06-05T22:29:43.678Z,66.60
2018-06-05T22:32:15.183Z,66.60
2018-06-05T22:34:46.889Z,66.70
2018-06-05T22:37:18.553Z,66.80
2018-06-05T22:39:50.121Z,67.00
2018-06-05T22:42:21.820Z,67.20
2018-06-05T22:44:53.523Z,67.40
2018-06-05T22:47:25.272Z,67.70
2018-06-05T22:49:57.160Z,68.00
2018-06-05T22:52:28.988Z,68.30
2018-06-05T22:55:00.673Z,68.60
2018-06-05T22:57:32.401Z,68.80
2018-06-05T23:02:35.050Z,69.40
2018-06-05T23:05:06.876Z,69.60
2018-06-05T23:07:38.581Z,69.70
2018-06-05T23:10:10.289Z,69.90
2018-06-05T23:12:41.954Z,70.20
2018-06-05T23:15:13.625Z,70.60
2018-06-05T23:17:45.257Z,70.60
2018-06-05T23:20:16.965Z,70.80
2018-06-05T23:22:48.674Z,70.90
2018-06-05T23:25:20.437Z,70.90
2018-06-05T23:27:52.083Z,70.90
2018-06-05T23:30:23.753Z,71.00
2018-06-05T23:32:55.423Z,71.00
2018-06-05T23:35:27.469Z,71.00
2018-06-05T23:37:59.016Z,70.90
2018-06-05T23:40:30.770Z,70.70
2018-06-05T23:43:02.376Z,70.90
2018-06-05T23:45:34.194Z,70.80
2018-06-05T23:48:05.740Z,70.60
2018-06-05T23:50:37.438Z,70.70
2018-06-05T23:53:09.169Z,70.40
2018-06-05T23:55:40.850Z,70.50
2018-06-05T23:58:12.637Z,70.30
